Printer image icon. Send To Printer
                           RAOB DATA MANUAL QUALITY CONTROL (QC) REPORT
                                  MEXICAN
                       From 20150201 through 20150228

 ___DATE___ HOUR REASN DETAILS...

76256/GYM
   20150202  12Z 10158 10158...flight equipment failure
   20150203  12Z 10158 10158...Flight equipment failure
   20150204  12Z 10158 10158...Flight equipment failure
   20150207  12Z 10158 10158
   20150208  12Z 10148 10148
   20150209  12Z 10158 10158; Flight equip problems.
   20150211  12Z 10158 10158; Flight equip problem.
   20150212  12Z 10158 10158; Flight equip problems.
   20150216  12Z 10158 10158.
   20150219  12Z 10158 10158
   20150220  12Z 10158 10158...flight equipment failure
   20150224  12Z 10158 10158.
   20150227  12Z 10158 10158.
   20150228  12Z 10158 10158

14 records found

76405/LAP
   20150213  12Z DELET Purged temp/rh 944-849 mb...non-meteorological lapse
                       rates

1 record found

76458/MZT
   20150201  00Z 10158 10158
   20150201  12Z 10158 10158.
   20150202  00Z 10158 Flight equipment failure...10158
   20150202  12Z 10158 10158...flight equipment failure
   20150203  00Z 10158 10158...Flight equipment failure
   20150203  12Z 10158 10158...Flight equipment failure
   20150205  00Z 10158 10158; Flight equip problem..
   20150206  00Z 10158 10158...Flight equipment failure
   20150207  00Z 10158 10158...Flight equipment failure
   20150208  00Z 10158 10158...Flight equipment failure.
   20150208  12Z 10158 10158.
   20150210  00Z 10158 Flight equipment failure...10158
   20150212  00Z 10158 10158
   20150213  00Z 10158 10158...Flight equipment failure
   20150214  00Z 10158 10158...Flight equipment failure
   20150215  00Z 10158 10158
   20150216  00Z 10158 10158
   20150216  12Z 10158 10158.
   20150217  00Z 10142 10142...ground equipment failure
   20150217  12Z 10142 10142.
   20150218  00Z 10142 Ground equipment failure...10142
   20150218  12Z 10142 10142.
   20150219  00Z 10142 10142
   20150219  12Z 10142 10142
   20150220  00Z 10142 10142
   20150220  12Z 10142 10142...ground equipment failure
   20150221  00Z 10142 10142
   20150221  12Z 10142 10142; Ground equip problems..
   20150222  00Z 10142 10142...Ground equipment failure
   20150222  12Z 10142 10142; Ground equip problem.
   20150223  00Z 10142 10142...Ground equipment failure
   20150224  00Z 10142 10142
   20150224  12Z 10142 10142.
   20150225  00Z 10142 10142
   20150226  00Z 10142 10142
   20150226  12Z 10142 10142.
   20150227  00Z 10142 10142
   20150227  12Z 10142 10142.
   20150228  00Z 10142 10142
   20150228  12Z 10142 10142

40 records found

76526/ZAC
   20150203  00Z DELET Purged all hgts/temps...portions low/cold
   20150206  12Z 10142 10142
   20150207  12Z 10142 10142
   20150219  00Z DELET Purged temps/moisture 767-662 mb...non-meteorological
                       lapse rates
   20150225  00Z 10142 10142

5 records found

76612/GDL
   20150201  12Z 10157 10157.
   20150202  12Z 10157 10157...preventive maintenance
   20150203  12Z 10157 10157...Preventive maintenance
   20150204  12Z 10157 10157...Preventive maintenance
   20150205  12Z 10157 10157
   20150206  12Z 10157 10157
   20150211  12Z 10157 10157; Preventive Maintenance.
   20150212  12Z 10157 10157; Preventive Maintenance.
   20150213  12Z 10157 10157...preventive maintenance
   20150220  12Z 10157 10157...preventive maintenance
   20150227  12Z 10157 10157.

11 records found

76644/MID
   20150208  12Z 10148 10148
   20150209  12Z 10142 10142; Ground equip problems.
   20150214  12Z DELET Purged all hgts/temps...portions high/warm

3 records found

76654/MZL
   20150202  00Z 10158 Flight equipment failure...10158
   20150203  12Z 10142 10142...Ground equipment failure
   20150204  00Z 10158 10158; Flight equip problem..
   20150205  00Z 10158 10158; flight equip problem..
   20150206  00Z 10158 10158...Flight equipment failure
   20150206  12Z DELET Purged all hgts and temps...high/warm
   20150207  00Z 10158 10158...Flight equipment failure
   20150208  00Z 10158 10158...Flight equipment failure.
   20150208  12Z 10158 10158.
   20150210  00Z 10158 Flight equipment failure...10158
   20150212  00Z 10158 10158
   20150213  00Z 10158 10158...Flight equipment failure
   20150214  00Z 10158 10158...Flight equipment failure
   20150215  00Z 10158 10158
   20150216  00Z 10158 10158
   20150217  00Z 10158 10158...flight equipment failure
   20150218  00Z 10158 Flight equipment failure...10158
   20150220  00Z 10158 10158
   20150221  00Z 10158 10158
   20150222  00Z 10158 10158...Flight equipment failure
   20150223  00Z 10158 10158...Flight equipment failure
   20150224  00Z 10158 10158
   20150225  00Z 10158 10158
   20150226  00Z 10158 10158
   20150227  00Z 10158 10158
   20150228  00Z 10158 10158

26 records found

76679/MEX
   20150201  00Z DELET Purged all temperatures...too warm
   20150205  00Z DELET Purge hts temps and humidity 1000mb up high and warm..
   20150206  00Z DELET Purged temps/moisture 774-700 mb...wet bulb
   20150210  00Z 10157 Preventative maintenance...10157
   20150213  00Z 10157 10157...Preventive maintenance
   20150214  00Z 10157 10157...Preventive maintenance
   20150215  00Z 10157 10157
   20150223  00Z DELET Purged all hgts/temps...high/warm
   20150225  00Z 10142 10142
   20150226  00Z DELET Purged all hgts/temps...portions high/warm
   20150227  00Z DELET Purged all temps/rh...too warm

11 records found

76692/HYY
   20150201  00Z DELET Purged temps above 105 mb...non-meteorological lapse 
                       rates
   20150206  00Z DELET Purged all hgts/temps...portions high/warm
   20150210  00Z DELET Deleted spurious wind at 481 mb
   20150214  00Z DELET Purged all hgts/temps...portions high/warm
   20150218  00Z DELET Purge hts/temps and humidity 925mb up high/warm
   20150220  00Z DELET Purged all temps/moisture...too warm
   20150225  00Z DELET Purged all hgts/temps...portions high/warm

7 records found

76805/ACA
   20150204  12Z 10158 10158...Flight equipment failure
   20150205  12Z 10158 10158
   20150217  12Z 10158 10158.
   20150218  12Z 10158 10158.

4 records found



SELECTED STATIONS WITH NO SDM QC:
  76225/CUU  76394/MTY  76595/CUN  76743/VHA  76903/TAP




This and related reports are available on the Web at . . .
http://www.nco.ncep.noaa.gov/sib/qap/raobqc/